Data for 04/09/2013

Time Sea-Level Adjusted Pressure Absolute Pressure Temperature Relative Humidity Dew Point   
(mb) (inHg) (mb) (inHg) (C) (F) (%) (C) (F)
00:05 1022 30.18 851 25.13 -8.8 16.2 67 -13.8 7.2
00:10 1022 30.18 851 25.13 -8.8 16.2 67 -13.8 7.2
00:15 1022 30.18 851 25.13 -8.8 16.2 67 -13.8 7.1
00:20 1022 30.18 852 25.16 -8.8 16.2 67 -13.8 7.2
00:25 1022 30.18 852 25.16 -8.8 16.2 66 -14 6.9
00:30 1022 30.18 852 25.16 -8.8 16.2 67 -13.8 7.1
00:35 1022 30.18 852 25.16 -8.8 16.1 67 -14 6.9
00:40 1022 30.18 852 25.16 -8.8 16.2 65 -14.1 6.5
00:45 1023 30.21 852 25.16 -8.8 16.2 66 -14.1 6.7
00:50 1023 30.21 852 25.16 -8.8 16.2 66 -14 6.8
00:55 1023 30.21 852 25.16 -8.8 16.1 67 -13.8 7.1
01:00 1023 30.21 852 25.16 -8.9 16 69 -13.6 7.5
01:05 1023 30.21 852 25.16 -9 15.9 71 -13.4 7.9
01:10 1023 30.21 852 25.16 -9 15.8 71 -13.4 7.8
01:15 1023 30.21 852 25.16 -9 15.8 72 -13.3 8.1
01:20 1023 30.21 852 25.16 -9 15.8 72 -13.3 8.1
01:25 1023 30.21 852 25.16 -9 15.8 72 -13.2 8.3
01:30 1023 30.21 852 25.16 -9 15.8 72 -13.2 8.2
01:35 1023 30.21 852 25.16 -9 15.9 72 -13.1 8.4
01:40 1023 30.21 852 25.16 -9 15.8 72 -13.2 8.2
01:45 1023 30.21 852 25.16 -8.9 15.9 68 -13.7 7.3
01:50 1023 30.21 852 25.16 -8.9 16.1 69 -13.6 7.4
01:55 1023 30.21 852 25.16 -8.8 16.1 68 -13.6 7.5
02:00 1023 30.21 852 25.16 -8.8 16.1 69 -13.5 7.7
02:05 1023 30.21 852 25.16 -8.9 16.1 69 -13.6 7.6
02:10 1023 30.21 852 25.16 -8.9 16.1 70 -13.5 7.8
02:15 1023 30.21 852 25.16 -8.8 16.1 69 -13.6 7.6
02:20 1023 30.21 852 25.16 -8.8 16.1 70 -13.4 7.9
02:25 1023 30.21 852 25.16 -8.8 16.1 70 -13.4 7.9
02:30 1023 30.21 852 25.16 -8.8 16.1 69 -13.5 7.7
02:35 1023 30.21 852 25.16 -8.8 16.1 69 -13.5 7.7
02:40 1023 30.21 852 25.16 -8.8 16.1 69 -13.5 7.8
02:45 1023 30.21 852 25.16 -8.9 16.1 69 -13.5 7.7
02:50 1023 30.21 852 25.16 -8.8 16.1 69 -13.5 7.8
02:55 1023 30.21 852 25.16 -8.9 16.1 70 -13.4 7.8
03:00 1023 30.21 852 25.16 -8.9 16 70 -13.4 7.9
03:05 1023 30.21 852 25.16 -8.9 16 71 -13.3 8.1
03:10 1023 30.21 852 25.16 -8.9 16 71 -13.3 8.1
03:15 1023 30.21 852 25.16 -8.9 16 71 -13.2 8.2
03:20 1023 30.21 852 25.16 -8.9 16.1 70 -13.4 7.8
03:25 1023 30.21 852 25.16 -8.8 16.1 68 -13.6 7.5
03:30 1023 30.21 852 25.16 -8.9 16.1 69 -13.6 7.5
03:35 1023 30.21 852 25.16 -8.8 16.1 69 -13.5 7.6
03:40 1023 30.21 852 25.16 -8.8 16.2 69 -13.6 7.6
03:45 1023 30.21 852 25.16 -8.8 16.2 68 -13.7 7.3
03:50 1023 30.21 852 25.16 -8.8 16.2 69 -13.5 7.7
03:55 1023 30.21 852 25.16 -8.8 16.2 68 -13.6 7.6
04:00 1023 30.21 852 25.16 -8.8 16.2 69 -13.5 7.6
04:05 1023 30.21 853 25.19 -8.8 16.2 68 -13.8 7.2
04:10 1023 30.21 853 25.19 -8.8 16.3 68 -13.7 7.3
04:15 1024 30.24 853 25.19 -8.7 16.3 67 -13.8 7.2
04:20 1024 30.24 853 25.19 -8.7 16.4 66 -13.9 6.9
04:25 1024 30.24 853 25.19 -8.7 16.3 68 -13.6 7.6
04:30 1024 30.24 853 25.19 -8.8 16.2 68 -13.6 7.6
04:35 1024 30.24 853 25.19 -8.9 16.1 68 -13.7 7.3
04:40 1024 30.24 853 25.19 -8.9 16 68 -13.7 7.3
04:45 1024 30.24 853 25.19 -8.9 16 69 -13.5 7.6
04:50 1024 30.24 853 25.19 -9 15.9 70 -13.5 7.7
04:55 1024 30.24 853 25.19 -9 15.8 70 -13.4 7.8
05:00 1024 30.24 853 25.19 -9 15.9 71 -13.3 8
05:05 1024 30.24 853 25.19 -9 15.8 72 -13.2 8.2
05:10 1024 30.24 853 25.19 -9 15.8 72 -13.2 8.3
05:15 1024 30.24 853 25.19 -9 15.7 73 -13.1 8.5
05:20 1024 30.24 853 25.19 -9.1 15.7 73 -13.1 8.3
05:25 1024 30.24 853 25.19 -9.1 15.7 72 -13.2 8.3
05:30 1024 30.24 853 25.19 -9.1 15.7 72 -13.2 8.2
05:35 1024 30.24 854 25.22 -9 15.7 72 -13.1 8.4
05:40 1024 30.24 854 25.22 -9 15.7 72 -13.2 8.2
05:45 1024 30.24 854 25.22 -9 15.8 71 -13.4 7.9
05:50 1024 30.24 854 25.22 -9 15.8 71 -13.4 7.9
05:55 1025 30.27 854 25.22 -9 15.9 71 -13.3 8
06:00 1025 30.27 854 25.22 -9 15.9 71 -13.3 8.1
06:05 1025 30.27 854 25.22 -9 15.9 71 -13.3 8.1
06:10 1025 30.27 854 25.22 -8.9 15.9 70 -13.4 7.9
06:15 1025 30.27 854 25.22 -8.9 15.9 70 -13.4 7.8
06:20 1025 30.27 854 25.22 -8.9 16 70 -13.5 7.7
06:25 1025 30.27 854 25.22 -8.9 16.1 70 -13.4 7.8
06:30 1025 30.27 854 25.22 -8.8 16.1 70 -13.4 7.9
06:35 1025 30.27 854 25.22 -8.8 16.2 69 -13.4 7.8
06:40 1025 30.27 854 25.22 -8.8 16.2 70 -13.4 7.9
06:45 1025 30.27 854 25.22 -8.8 16.1 70 -13.3 8
06:50 1025 30.27 854 25.22 -8.7 16.3 70 -13.3 8
06:55 1025 30.27 854 25.22 -8.7 16.3 70 -13.3 8.1
07:00 1025 30.27 854 25.22 -8.6 16.4 70 -13.2 8.3
07:05 1025 30.27 854 25.22 -8.6 16.6 70 -13.1 8.5
07:10 1025 30.27 854 25.22 -8.5 16.6 69 -13.2 8.3
07:15 1025 30.27 854 25.22 -8.5 16.7 70 -13.1 8.4
07:20 1025 30.27 854 25.22 -8.5 16.8 68 -13.3 8.1
07:25 1025 30.27 854 25.22 -8.5 16.8 68 -13.4 7.8
07:30 1025 30.27 854 25.22 -8.4 16.9 68 -13.3 8.1
07:35 1025 30.27 854 25.22 -8.3 17.1 68 -13.2 8.2
07:40 1025 30.27 854 25.22 -8.2 17.2 67 -13.3 8.1
07:45 1025 30.27 854 25.22 -8.1 17.3 66 -13.5 7.8
07:50 1025 30.27 854 25.22 -7.9 17.7 67 -13.1 8.4
07:55 1025 30.27 854 25.22 -7.7 18.2 66 -13 8.7
08:00 1025 30.27 854 25.22 -7.4 18.6 63 -13.2 8.2
08:05 1025 30.27 854 25.22 -7.5 18.5 62 -13.5 7.7
08:10 1025 30.27 854 25.22 -7.7 18.1 64 -13.5 7.8
08:15 1025 30.27 854 25.22 -7.5 18.5 64 -13.3 8.1
08:20 1025 30.27 854 25.22 -7.4 18.6 63 -13.3 8.1
08:25 1025 30.27 854 25.22 -7.2 19 63 -13.1 8.4
08:30 1025 30.27 854 25.22 -7.2 19.1 64 -12.8 9
08:35 1025 30.27 854 25.22 -6.9 19.5 61 -13.2 8.3
08:40 1025 30.27 854 25.22 -7.2 19.1 61 -13.4 7.9
08:45 1025 30.27 854 25.22 -7.2 19.1 62 -13.2 8.2
08:50 1025 30.27 854 25.22 -7 19.3 60 -13.6 7.6
08:55 1025 30.27 854 25.22 -7 19.3 62 -13.2 8.3
09:00 1025 30.27 854 25.22 -6.9 19.6 62 -13.1 8.5
09:05 1025 30.27 854 25.22 -6.7 19.9 60 -13.2 8.3
09:10 1025 30.27 854 25.22 -6.3 20.6 59 -13.2 8.3
09:15 1025 30.27 854 25.22 -6.1 21 58 -13.2 8.3
09:20 1025 30.27 854 25.22 -5.9 21.3 56 -13.4 7.8
09:25 1025 30.27 854 25.22 -5.8 21.5 56 -13.2 8.2
09:30 1025 30.27 854 25.22 -5.9 21.4 57 -13.2 8.2
09:35 1025 30.27 854 25.22 -5.7 21.8 54 -13.5 7.7
09:40 1025 30.27 854 25.22 -5.8 21.6 57 -13.1 8.5
09:45 1025 30.27 854 25.22 -5.6 21.9 55 -13.4 7.9
09:50 1025 30.27 854 25.22 -5.5 22 56 -13 8.5
09:55 1025 30.27 854 25.22 -5.1 22.9 53 -13.3 8.1
10:00 1025 30.27 854 25.22 -4.9 23.2 52 -13.3 8
10:05 1025 30.27 854 25.22 -4.4 24.2 45 -14.5 5.8
10:10 1025 30.27 854 25.22 -4.3 24.2 48 -13.7 7.3
10:15 1025 30.27 854 25.22 -4.3 24.2 46 -14.3 6.2
10:20 1025 30.27 854 25.22 -4.6 23.8 49 -13.8 7.2
10:25 1025 30.27 854 25.22 -4.7 23.6 52 -13.1 8.4
10:30 1025 30.27 854 25.22 -4.7 23.6 53 -12.9 8.7
10:35 1025 30.27 854 25.22 -4.9 23.2 54 -12.8 9
10:40 1025 30.27 854 25.22 -4.4 24.2 54 -12.4 9.7
10:45 1025 30.27 854 25.22 -4 24.9 52 -12.4 9.7
10:50 1025 30.27 854 25.22 -4.5 23.9 50 -13.4 7.9
10:55 1025 30.27 854 25.22 -4.3 24.3 52 -12.8 9
11:00 1025 30.27 854 25.22 -4.3 24.2 52 -12.8 8.9
11:05 1025 30.27 854 25.22 -4.2 24.4 53 -12.5 9.5
11:10 1025 30.27 854 25.22 -4.3 24.3 53 -12.6 9.3
11:15 1025 30.27 854 25.22 -4.4 24.1 55 -12.1 10.2
11:20 1025 30.27 854 25.22 -4 24.9 52 -12.3 9.8
11:25 1025 30.27 854 25.22 -3.7 25.3 53 -12 10.4
11:30 1025 30.27 854 25.22 -4.1 24.5 53 -12.3 9.9
11:35 1025 30.27 854 25.22 -4.1 24.6 54 -12.1 10.1
11:40 1025 30.27 854 25.22 -3.4 25.8 54 -11.5 11.2
11:45 1025 30.27 854 25.22 -3.2 26.2 52 -11.6 11.1
11:50 1025 30.27 854 25.22 -3.2 26.3 52 -11.6 11.2
11:55 1025 30.27 854 25.22 -4 24.8 56 -11.4 11.4
12:00 1025 30.27 854 25.22 -3.7 25.3 54 -11.7 11
12:05 1025 30.27 854 25.22 -3.1 26.4 51 -11.9 10.5
12:10 1025 30.27 854 25.22 -3.3 26 53 -11.6 11
12:15 1024 30.24 854 25.22 -2.7 27.2 49 -11.9 10.6
12:20 1024 30.24 854 25.22 -2.3 27.8 47 -12.2 10.1
12:25 1024 30.24 853 25.19 -2.8 27 49 -12 10.5
12:30 1024 30.24 853 25.19 -2.1 28.3 48 -11.6 11.1
12:35 1024 30.24 853 25.19 -2.4 27.6 51 -11.4 11.5
12:40 1024 30.24 853 25.19 -2.9 26.8 51 -11.8 10.8
12:45 1024 30.24 853 25.19 -2.9 26.7 52 -11.5 11.3
12:50 1024 30.24 853 25.19 -2.4 27.6 50 -11.5 11.3
12:55 1024 30.24 853 25.19 -2.6 27.3 51 -11.5 11.3
13:00 1024 30.24 853 25.19 -2.5 27.4 49 -11.9 10.5
13:05 1024 30.24 853 25.19 -2.6 27.3 53 -11 12.2
13:10 1024 30.24 853 25.19 -2.1 28.3 49 -11.3 11.6
13:15 1024 30.24 853 25.19 -2.5 27.5 51 -11.2 11.8
13:20 1024 30.24 853 25.19 -2.5 27.5 48 -12.1 10.2
13:25 1024 30.24 853 25.19 -2.1 28.2 50 -11.2 11.9
13:30 1024 30.24 853 25.19 -2 28.5 46 -12.1 10.2
13:35 1024 30.24 853 25.19 -1.7 29 46 -11.7 10.9
13:40 1024 30.24 853 25.19 -1.7 29 44 -12.4 9.6
13:45 1024 30.24 853 25.19 -1.7 29 48 -11.3 11.6
13:50 1024 30.24 853 25.19 -1.4 29.6 45 -11.9 10.6
13:55 1024 30.24 853 25.19 -1.4 29.6 44 -12.1 10.2
14:00 1024 30.24 853 25.19 -1.5 29.3 46 -11.8 10.7
14:05 1024 30.24 853 25.19 -1 30.3 42 -12.2 10
14:10 1024 30.24 853 25.19 -0.9 30.3 45 -11.5 11.3
14:15 1024 30.24 853 25.19 -0.8 30.5 44 -11.5 11.3
14:20 1024 30.24 853 25.19 -0.6 30.9 43 -11.8 10.8
14:25 1024 30.24 853 25.19 -0.7 30.7 45 -11.1 12
14:30 1024 30.24 853 25.19 -0.6 30.9 43 -11.6 11.1
14:35 1024 30.24 853 25.19 -0.5 31.2 43 -11.5 11.2
14:40 1024 30.24 853 25.19 -0.4 31.4 43 -11.4 11.5
14:45 1024 30.24 853 25.19 -0.1 31.9 44 -11 12.2
14:50 1024 30.24 853 25.19 0.1 32.1 44 -10.9 12.4
14:55 1024 30.24 853 25.19 0.4 32.8 40 -11.7 10.9
15:00 1024 30.24 853 25.19 0.7 33.2 41 -11 12.2
15:05 1024 30.24 853 25.19 0.5 32.9 41 -11.3 11.6
15:10 1024 30.24 853 25.19 0.4 32.7 42 -11.1 12
15:15 1024 30.24 853 25.19 -0.1 31.8 44 -10.9 12.4
15:20 1024 30.24 853 25.19 0.3 32.6 43 -10.8 12.5
15:25 1024 30.24 853 25.19 0.4 32.7 44 -10.6 12.9
15:30 1023 30.21 853 25.19 0.1 32.1 44 -10.7 12.7
15:35 1023 30.21 853 25.19 0.6 33 44 -10.3 13.4
15:40 1023 30.21 853 25.19 0.3 32.6 47 -9.7 14.6
15:45 1023 30.21 853 25.19 0 32 46 -10.3 13.5
15:50 1023 30.21 852 25.16 -0.1 31.8 46 -10.3 13.4
15:55 1023 30.21 852 25.16 -0.1 31.8 46 -10.4 13.3
16:00 1023 30.21 852 25.16 0.1 32.1 45 -10.4 13.3
16:05 1023 30.21 852 25.16 0 32.1 46 -10.4 13.3
16:10 1023 30.21 852 25.16 -0 31.9 47 -10.1 13.8
16:15 1023 30.21 852 25.16 0.1 32.1 47 -9.9 14.2
16:20 1023 30.21 852 25.16 -0.2 31.7 47 -10.1 13.8
16:25 1023 30.21 852 25.16 -0.1 31.8 48 -9.9 14.2
16:30 1023 30.21 852 25.16 0 32 48 -9.8 14.4
16:35 1023 30.21 852 25.16 -0.4 31.3 49 -9.8 14.4
16:40 1023 30.21 852 25.16 -0.2 31.6 47 -10.2 13.7
16:45 1023 30.21 852 25.16 -0.2 31.6 48 -9.9 14.2
16:50 1023 30.21 852 25.16 -0 31.9 47 -10.1 13.9
16:55 1023 30.21 852 25.16 -0 32 47 -9.9 14.1
17:00 1023 30.21 852 25.16 -0 32 48 -9.8 14.4
17:05 1023 30.21 852 25.16 0.1 32.2 47 -10 14.1
17:10 1023 30.21 852 25.16 0.2 32.3 47 -9.7 14.5
17:15 1023 30.21 852 25.16 0.2 32.4 47 -9.8 14.3
17:20 1023 30.21 852 25.16 0.2 32.3 47 -9.7 14.5
17:25 1023 30.21 852 25.16 -0.2 31.6 50 -9.4 15.1
17:30 1023 30.21 852 25.16 -0.5 31 51 -9.5 14.8
17:35 1023 30.21 852 25.16 -0.5 31 51 -9.6 14.8
17:40 1023 30.21 852 25.16 -0.6 30.9 50 -9.8 14.4
17:45 1023 30.21 852 25.16 -1 30.2 50 -10 13.9
17:50 1023 30.21 852 25.16 -1.3 29.7 51 -10.1 13.9
17:55 1023 30.21 852 25.16 -1.5 29.4 52 -10.1 13.8
18:00 1023 30.21 852 25.16 -1.4 29.5 52 -10 14.1
18:05 1023 30.21 852 25.16 -1.4 29.5 53 -9.9 14.2
18:10 1023 30.21 852 25.16 -1.6 29.2 53 -9.9 14.1
18:15 1023 30.21 852 25.16 -1.6 29.1 54 -9.8 14.3
18:20 1023 30.21 852 25.16 -1.7 28.9 53 -10 13.9
18:25 1023 30.21 852 25.16 -1.9 28.6 54 -9.9 14.1
18:30 1023 30.21 852 25.16 -2.1 28.3 54 -10.1 13.8
18:35 1023 30.21 852 25.16 -2.2 28 54 -10.3 13.5
18:40 1023 30.21 852 25.16 -2.5 27.5 55 -10.3 13.5
18:45 1023 30.21 852 25.16 -2.7 27.1 56 -10.3 13.5
18:50 1023 30.21 852 25.16 -2.9 26.8 56 -10.5 13.1
18:55 1022 30.18 852 25.16 -3.1 26.3 56 -10.7 12.8
19:00 1022 30.18 852 25.16 -3.4 26 56 -11 12.2
19:05 1022 30.18 852 25.16 -3.5 25.8 55 -11.3 11.6
19:10 1022 30.18 852 25.16 -3.6 25.5 56 -11.3 11.7
19:15 1022 30.18 852 25.16 -3.7 25.3 56 -11.2 11.8
19:20 1022 30.18 852 25.16 -3.9 25 57 -11.2 11.8
19:25 1022 30.18 852 25.16 -4 24.8 57 -11.3 11.6
19:30 1022 30.18 852 25.16 -4.1 24.7 58 -11.1 12
19:35 1022 30.18 852 25.16 -4.2 24.5 60 -10.9 12.4
19:40 1023 30.21 852 25.16 -4.3 24.3 61 -10.8 12.6
19:45 1023 30.21 852 25.16 -4.4 24.1 62 -10.7 12.8
19:50 1023 30.21 852 25.16 -4.5 23.8 63 -10.5 13.1
19:55 1023 30.21 852 25.16 -4.6 23.6 64 -10.5 13.1
20:00 1023 30.21 852 25.16 -4.8 23.4 65 -10.5 13.2
20:05 1023 30.21 852 25.16 -4.9 23.1 66 -10.3 13.4
20:10 1023 30.21 852 25.16 -5 22.9 67 -10.2 13.6
20:15 1023 30.21 852 25.16 -5.1 22.8 67 -10.3 13.5
20:20 1023 30.21 852 25.16 -5.2 22.6 68 -10.3 13.5
20:25 1023 30.21 852 25.16 -5.3 22.5 68 -10.4 13.4
20:30 1023 30.21 852 25.16 -5.3 22.5 68 -10.3 13.4
20:35 1023 30.21 852 25.16 -5.3 22.4 66 -10.6 12.8
20:40 1023 30.21 852 25.16 -5.3 22.6 66 -10.7 12.7
20:45 1023 30.21 852 25.16 -5.2 22.6 66 -10.7 12.8
20:50 1023 30.21 852 25.16 -5.3 22.5 66 -10.7 12.7
20:55 1023 30.21 852 25.16 -5.4 22.3 67 -10.6 13
21:00 1023 30.21 852 25.16 -5.6 22 68 -10.6 12.9
21:05 1023 30.21 852 25.16 -5.6 21.9 67 -10.8 12.6
21:10 1023 30.21 852 25.16 -5.5 22.1 65 -11 12.2
21:15 1023 30.21 852 25.16 -5.4 22.3 65 -10.9 12.3
21:20 1023 30.21 852 25.16 -5.4 22.3 65 -10.9 12.3
21:25 1023 30.21 852 25.16 -5.5 22.1 67 -10.8 12.6
21:30 1023 30.21 852 25.16 -5.6 22 67 -10.8 12.6
21:35 1023 30.21 852 25.16 -5.6 21.9 67 -10.9 12.4
21:40 1023 30.21 852 25.16 -5.6 21.9 67 -10.8 12.5
21:45 1023 30.21 852 25.16 -5.7 21.8 67 -10.9 12.4
21:50 1023 30.21 852 25.16 -5.7 21.8 67 -10.9 12.3
21:55 1023 30.21 852 25.16 -5.6 21.9 67 -10.8 12.6
22:00 1023 30.21 852 25.16 -5.6 21.8 67 -10.7 12.7
22:05 1023 30.21 852 25.16 -5.7 21.8 68 -10.7 12.8
22:10 1023 30.21 852 25.16 -5.7 21.8 68 -10.7 12.7
22:15 1023 30.21 852 25.16 -5.7 21.7 68 -10.7 12.7
22:20 1022 30.18 852 25.16 -5.7 21.7 68 -10.7 12.7
22:25 1022 30.18 852 25.16 -5.8 21.6 68 -10.8 12.6
22:30 1022 30.18 852 25.16 -5.8 21.6 67 -10.9 12.4
22:35 1022 30.18 852 25.16 -5.8 21.6 68 -10.8 12.5
22:40 1022 30.18 852 25.16 -5.8 21.5 67 -10.9 12.3
22:45 1022 30.18 852 25.16 -5.9 21.4 68 -11 12.3
22:50 1022 30.18 852 25.16 -5.9 21.4 67 -11 12.2
22:55 1022 30.18 852 25.16 -5.8 21.6 66 -11.1 12
23:00 1022 30.18 852 25.16 -5.7 21.7 67 -10.9 12.3
23:05 1022 30.18 852 25.16 -5.8 21.5 67 -11.1 12.1
23:10 1022 30.18 851 25.13 -5.9 21.4 68 -10.9 12.3
23:15 1022 30.18 852 25.16 -6 21.1 68 -11 12.2
23:20 1022 30.18 852 25.16 -6 21.1 68 -11 12.1
23:25 1022 30.18 851 25.13 -6.1 21.1 68 -11.1 12.1
23:30 1022 30.18 851 25.13 -6 21.2 66 -11.4 11.4
23:35 1022 30.18 851 25.13 -5.8 21.5 66 -11.3 11.7
23:40 1022 30.18 851 25.13 -5.9 21.4 67 -11.1 12
23:45 1022 30.18 851 25.13 -6 21.2 66 -11.3 11.7
23:50 1022 30.18 851 25.13 -6 21.1 67 -11.3 11.7
23:55 1022 30.18 851 25.13 -6.1 21 67 -11.2 11.8
24:00 1022 30.18 852 25.16 -6.1 21 68 -11.2 11.9